Time;durP1;ratioP1;P1;durP2;ratioP2;P2;SDS_P1;SDS_P2;PMS_P1;PMS_P2;Temp;Humidity;BMP_temperature;BMP_pressure;BME280_temperature;BME280_humidity;BME280_pressure;Samples;Min_cycle;Max_cycle;Signal;HPM_P1;HPM_P2
2023/08/18 00:01:59;;;;;;;4.53;2.97;;;20.00;99.90;;;;;;5035584;28;20044;-86
2023/08/18 00:04:25;;;;;;;5.32;3.40;;;20.00;99.90;;;;;;5036103;28;20030;-87
2023/08/18 00:06:51;;;;;;;4.22;3.47;;;20.00;99.90;;;;;;5022709;28;20038;-86
2023/08/18 00:09:17;;;;;;;5.47;3.50;;;20.00;99.90;;;;;;5034639;28;20029;-87
2023/08/18 00:11:43;;;;;;;4.88;2.88;;;20.00;99.90;;;;;;5029832;28;20041;-85
2023/08/18 00:14:10;;;;;;;5.65;3.13;;;20.00;99.90;;;;;;5021803;28;20042;-86
2023/08/18 00:16:36;;;;;;;3.70;2.28;;;19.90;99.90;;;;;;5021101;28;20028;-86
2023/08/18 00:19:02;;;;;;;3.70;2.60;;;19.80;99.90;;;;;;5029969;28;20610;-84
2023/08/18 00:21:28;;;;;;;6.25;3.25;;;19.60;99.90;;;;;;5033963;28;20029;-86
2023/08/18 00:23:54;;;;;;;3.83;2.67;;;19.70;99.90;;;;;;5027269;28;20114;-86
2023/08/18 00:26:20;;;;;;;4.43;2.80;;;19.60;99.90;;;;;;5033677;28;20379;-86
2023/08/18 00:28:46;;;;;;;6.43;3.75;;;19.50;99.90;;;;;;5033194;28;20060;-86
2023/08/18 00:31:12;;;;;;;3.78;2.53;;;19.40;1.00;;;;;;5024642;28;20838;-86
2023/08/18 00:33:39;;;;;;;4.47;2.80;;;19.30;1.00;;;;;;5024567;28;20101;-86
2023/08/18 00:36:05;;;;;;;5.05;3.85;;;19.20;1.00;;;;;;5031403;28;20038;-86
2023/08/18 00:38:34;;;;;;;4.07;2.90;;;19.30;1.00;;;;;;5024824;28;20037;-86
2023/08/18 00:41:00;;;;;;;5.07;2.70;;;19.30;1.00;;;;;;5019046;28;20057;-87
2023/08/18 00:43:26;;;;;;;4.07;2.88;;;19.30;1.00;;;;;;5038825;28;20472;-86
2023/08/18 00:45:53;;;;;;;4.47;3.35;;;19.30;1.00;;;;;;5037623;28;20053;-86
2023/08/18 00:48:19;;;;;;;4.53;3.17;;;19.20;1.00;;;;;;5033731;28;20037;-87
2023/08/18 00:50:46;;;;;;;4.72;3.30;;;19.30;1.00;;;;;;5033288;28;20492;-84
2023/08/18 00:53:12;;;;;;;5.93;3.22;;;19.30;1.00;;;;;;5036878;28;20044;-87
2023/08/18 00:55:39;;;;;;;4.93;3.38;;;19.40;1.00;;;;;;5023788;28;20045;-87
2023/08/18 00:58:06;;;;;;;6.15;3.28;;;19.30;1.00;;;;;;5039358;28;20046;-85
2023/08/18 01:00:32;;;;;;;6.82;3.85;;;19.30;1.00;;;;;;5025122;28;20040;-86
2023/08/18 01:03:00;;;;;;;4.20;3.17;;;19.30;1.00;;;;;;5026650;28;20045;-87
2023/08/18 01:05:26;;;;;;;4.00;2.80;;;19.10;1.00;;;;;;5033652;28;20033;-86
2023/08/18 01:07:52;;;;;;;4.40;3.15;;;19.10;1.00;;;;;;5031534;28;20029;-87
2023/08/18 01:10:20;;;;;;;5.55;3.83;;;19.00;1.00;;;;;;5040124;28;20394;-86
2023/08/18 01:12:51;;;;;;;4.80;3.13;;;19.00;1.00;;;;;;5030262;28;20040;-80
2023/08/18 01:15:30;;;;;;;6.45;3.67;;;19.00;1.00;;;;;;5026151;28;20057;-86
2023/08/18 01:18:03;;;;;;;5.80;3.72;;;19.00;1.00;;;;;;5027524;28;20037;-87
2023/08/18 01:20:30;;;;;;;6.53;3.80;;;19.10;1.00;;;;;;5022223;28;20033;-87
2023/08/18 01:23:01;;;;;;;6.03;4.07;;;19.10;1.00;;;;;;5022706;28;20060;-86
2023/08/18 01:25:27;;;;;;;5.03;3.13;;;19.00;1.00;;;;;;5023587;28;20029;-87
2023/08/18 01:27:55;;;;;;;5.38;3.75;;;19.00;1.00;;;;;;5036385;28;20045;-87
2023/08/18 01:30:27;;;;;;;4.28;3.40;;;18.90;1.00;;;;;;5033763;28;20836;-81
2023/08/18 01:33:01;;;;;;;5.60;3.88;;;18.80;1.00;;;;;;5029099;28;20049;-86
2023/08/18 01:35:29;;;;;;;4.72;3.78;;;18.80;1.00;;;;;;5020932;28;20045;-86
2023/08/18 01:37:58;;;;;;;5.80;3.38;;;18.80;1.00;;;;;;5034528;28;20033;-86
2023/08/18 01:40:27;;;;;;;5.00;3.38;;;18.80;1.00;;;;;;5023342;28;20033;-82
2023/08/18 01:42:54;;;;;;;7.77;3.80;;;18.80;1.00;;;;;;5030468;28;20057;-87
2023/08/18 01:45:20;;;;;;;9.85;4.40;;;18.80;1.00;;;;;;5021604;28;20744;-87
2023/08/18 01:47:46;;;;;;;5.22;3.90;;;18.90;1.00;;;;;;5057118;28;20017;-78
2023/08/18 01:50:14;;;;;;;6.13;4.03;;;18.80;1.00;;;;;;5061041;28;20016;-84
2023/08/18 01:52:41;;;;;;;6.28;3.72;;;18.80;1.00;;;;;;5039695;28;20105;-81
2023/08/18 01:55:07;;;;;;;6.38;4.03;;;18.80;1.00;;;;;;5053152;28;20041;-80
2023/08/18 01:57:33;;;;;;;6.00;3.30;;;18.80;1.00;;;;;;5042308;28;20046;-87
2023/08/18 01:59:59;;;;;;;4.53;3.33;;;18.80;1.00;;;;;;5045793;28;20056;-79
2023/08/18 02:02:26;;;;;;;5.80;4.00;;;18.80;1.00;;;;;;5041670;28;20028;-86
2023/08/18 02:04:55;;;;;;;4.97;3.28;;;18.80;1.00;;;;;;5023369;28;20455;-87
2023/08/18 02:07:21;;;;;;;6.05;3.65;;;18.70;1.00;;;;;;5020215;28;20034;-87
2023/08/18 02:09:47;;;;;;;4.82;3.88;;;18.60;1.00;;;;;;5035881;28;20029;-80
2023/08/18 02:12:13;;;;;;;8.57;4.20;;;18.60;1.00;;;;;;5035208;28;20025;-86
2023/08/18 02:14:39;;;;;;;5.68;3.55;;;18.60;1.00;;;;;;5036538;28;20458;-87
2023/08/18 02:17:05;;;;;;;5.05;3.78;;;18.50;1.00;;;;;;5038477;28;20029;-87
2023/08/18 02:19:31;;;;;;;6.50;3.75;;;18.50;1.00;;;;;;5026834;28;20026;-86
2023/08/18 02:21:57;;;;;;;4.80;3.35;;;18.40;1.00;;;;;;5026898;28;20034;-87
2023/08/18 02:24:27;;;;;;;5.10;3.58;;;18.30;1.00;;;;;;5026757;28;20822;-86
2023/08/18 02:26:53;;;;;;;4.45;3.17;;;18.30;1.00;;;;;;5019785;28;20038;-87
2023/08/18 02:29:20;;;;;;;5.85;3.83;;;18.30;1.00;;;;;;5028126;28;20057;-86
2023/08/18 02:31:47;;;;;;;6.57;4.00;;;18.30;2.70;;;;;;5014905;28;20034;-88
2023/08/18 02:34:13;;;;;;;6.18;3.40;;;18.30;23.50;;;;;;5040481;28;20485;-88
2023/08/18 02:36:39;;;;;;;5.65;3.65;;;18.30;36.30;;;;;;5034976;28;20045;-87
2023/08/18 02:39:06;;;;;;;5.68;4.13;;;18.40;35.30;;;;;;5033179;28;20034;-87
2023/08/18 02:41:32;;;;;;;5.22;3.38;;;18.40;28.40;;;;;;5030599;28;20048;-87
2023/08/18 02:44:00;;;;;;;6.35;3.65;;;18.40;17.80;;;;;;5035834;28;20064;-87
2023/08/18 02:46:26;;;;;;;4.68;3.38;;;18.40;4.50;;;;;;5022559;28;20474;-87
2023/08/18 02:48:52;;;;;;;5.38;3.35;;;18.40;1.00;;;;;;5022013;28;20030;-81
2023/08/18 02:51:19;;;;;;;5.53;3.55;;;18.40;2.50;;;;;;5015126;28;20057;-87
2023/08/18 02:53:48;;;;;;;5.20;3.67;;;18.30;1.00;;;;;;5039377;28;20462;-87
2023/08/18 02:56:15;;;;;;;4.13;2.97;;;18.20;1.00;;;;;;5037516;28;20049;-83
2023/08/18 02:58:42;;;;;;;5.18;3.20;;;18.20;1.00;;;;;;5045546;28;20136;-87
2023/08/18 03:01:09;;;;;;;5.18;3.00;;;18.10;1.00;;;;;;5035786;28;20049;-87
2023/08/18 03:03:35;;;;;;;5.80;3.88;;;18.00;1.00;;;;;;5032524;28;20041;-87
2023/08/18 03:06:03;;;;;;;4.95;3.65;;;18.10;1.00;;;;;;5027952;28;20037;-87
2023/08/18 03:08:29;;;;;;;4.05;3.17;;;18.00;1.00;;;;;;5035629;28;20033;-87
2023/08/18 03:11:00;;;;;;;6.95;3.33;;;18.00;1.00;;;;;;5019846;28;20470;-87
2023/08/18 03:13:28;;;;;;;4.28;3.17;;;17.90;1.00;;;;;;5026153;28;20045;-87
2023/08/18 03:15:54;;;;;;;5.97;3.88;;;17.80;1.00;;;;;;5034504;28;20037;-85
2023/08/18 03:18:21;;;;;;;4.80;3.25;;;17.80;1.00;;;;;;5042729;28;20409;-84
2023/08/18 03:20:48;;;;;;;4.60;2.95;;;17.80;1.00;;;;;;5036464;28;20037;-84
2023/08/18 03:23:16;;;;;;;4.97;3.13;;;17.80;4.20;;;;;;5034075;28;20057;-87
2023/08/18 03:25:43;;;;;;;5.07;3.63;;;17.90;7.00;;;;;;5032205;28;20398;-86
2023/08/18 03:28:12;;;;;;;3.88;3.08;;;17.90;1.00;;;;;;5029274;28;20850;-87
2023/08/18 03:30:39;;;;;;;5.15;3.53;;;17.90;1.00;;;;;;5014845;28;20042;-87
2023/08/18 03:33:07;;;;;;;4.85;3.53;;;17.90;1.00;;;;;;5024999;28;20045;-86
2023/08/18 03:35:35;;;;;;;5.20;3.78;;;17.90;1.00;;;;;;5023927;28;20022;-87
2023/08/18 03:38:02;;;;;;;5.00;3.10;;;17.80;1.00;;;;;;5028958;28;20029;-84
2023/08/18 03:40:31;;;;;;;5.45;3.28;;;17.70;1.00;;;;;;5034477;28;20041;-86
2023/08/18 03:42:58;;;;;;;5.53;3.53;;;17.60;1.00;;;;;;5035281;28;20053;-87
2023/08/18 03:45:24;;;;;;;4.32;3.15;;;17.60;1.00;;;;;;5035893;28;20045;-86
2023/08/18 03:47:51;;;;;;;5.45;3.58;;;17.50;1.00;;;;;;5037035;28;20042;-81
2023/08/18 03:50:21;;;;;;;4.28;3.35;;;17.50;1.00;;;;;;5032214;28;20394;-87
2023/08/18 03:52:48;;;;;;;5.88;3.88;;;17.40;1.00;;;;;;5032345;28;20395;-88
2023/08/18 03:55:15;;;;;;;4.97;3.50;;;17.40;1.00;;;;;;5031759;28;20466;-87
2023/08/18 03:57:41;;;;;;;5.22;3.35;;;17.40;4.60;;;;;;5027959;28;20042;-86
2023/08/18 04:00:09;;;;;;;4.53;3.00;;;17.50;11.10;;;;;;5035781;28;20045;-84
2023/08/18 04:02:39;;;;;;;5.57;3.08;;;17.50;9.80;;;;;;5040098;28;20049;-84
2023/08/18 04:05:07;;;;;;;4.60;3.40;;;17.50;10.60;;;;;;5019943;28;20045;-83
2023/08/18 04:07:33;;;;;;;7.70;3.58;;;17.40;3.90;;;;;;5031803;28;20064;-84
2023/08/18 04:09:59;;;;;;;5.68;3.40;;;17.40;6.80;;;;;;5035450;28;20102;-84
2023/08/18 04:12:25;;;;;;;5.05;3.00;;;17.40;2.60;;;;;;5034071;28;20034;-84
2023/08/18 04:14:51;;;;;;;5.75;3.92;;;17.40;10.10;;;;;;5026465;28;20033;-80
2023/08/18 04:17:18;;;;;;;4.43;3.22;;;17.30;1.00;;;;;;5034935;28;20048;-84
2023/08/18 04:19:46;;;;;;;5.13;2.70;;;17.20;1.00;;;;;;5036617;28;20040;-82
2023/08/18 04:22:12;;;;;;;6.40;3.80;;;17.20;10.60;;;;;;5043354;28;20037;-84
2023/08/18 04:24:38;;;;;;;5.63;3.30;;;17.20;16.30;;;;;;5042928;28;20041;-82
2023/08/18 04:27:05;;;;;;;4.57;3.03;;;17.20;11.80;;;;;;5048061;28;20036;-82
2023/08/18 04:29:31;;;;;;;4.90;3.10;;;17.10;20.30;;;;;;5035275;28;20046;-82
2023/08/18 04:31:57;;;;;;;4.50;2.78;;;17.10;22.70;;;;;;5037281;28;20041;-82
2023/08/18 04:34:23;;;;;;;6.07;3.72;;;17.10;25.50;;;;;;5023139;28;20033;-82
2023/08/18 04:36:49;;;;;;;5.18;3.63;;;17.10;36.10;;;;;;5034824;28;20038;-82
2023/08/18 04:39:16;;;;;;;5.50;3.17;;;17.20;46.40;;;;;;5020916;28;20447;-81
2023/08/18 04:41:43;;;;;;;4.45;3.03;;;17.20;48.10;;;;;;5022507;28;20041;-82
2023/08/18 04:44:09;;;;;;;4.90;3.20;;;17.10;33.20;;;;;;5040039;28;20056;-82
2023/08/18 04:46:37;;;;;;;5.00;3.40;;;17.20;37.60;;;;;;5037468;28;20046;-82
2023/08/18 04:49:10;;;;;;;5.20;3.67;;;17.20;23.20;;;;;;5025489;28;20049;-79
2023/08/18 04:51:36;;;;;;;10.07;3.75;;;17.20;20.70;;;;;;5025980;28;20047;-82
2023/08/18 04:54:03;;;;;;;5.50;3.97;;;17.20;31.70;;;;;;5031400;28;20040;-82
2023/08/18 04:56:29;;;;;;;6.28;4.30;;;17.40;45.00;;;;;;5032332;28;20685;-82
2023/08/18 04:58:56;;;;;;;6.57;4.03;;;17.50;40.50;;;;;;5019154;28;20046;-79
2023/08/18 05:01:22;;;;;;;6.05;3.72;;;17.50;1.00;;;;;;5028226;28;20052;-82
2023/08/18 05:03:51;;;;;;;4.57;3.13;;;17.70;1.00;;;;;;5019643;28;20064;-82
2023/08/18 05:06:17;;;;;;;7.90;3.25;;;17.90;1.00;;;;;;5030703;28;20040;-82
2023/08/18 05:08:44;;;;;;;5.28;3.53;;;18.10;1.00;;;;;;5034350;28;20033;-82
2023/08/18 05:11:11;;;;;;;5.75;3.40;;;18.60;1.00;;;;;;5035806;28;20048;-82
2023/08/18 05:13:39;;;;;;;5.82;3.40;;;19.30;99.90;;;;;;5027882;28;20372;-82
2023/08/18 05:16:05;;;;;;;6.18;4.35;;;19.60;99.90;;;;;;5023004;28;20038;-82
2023/08/18 05:18:32;;;;;;;8.05;2.90;;;19.70;99.90;;;;;;5034544;28;20057;-82
2023/08/18 05:20:59;;;;;;;5.00;3.13;;;20.00;99.90;;;;;;5022038;28;20037;-78
2023/08/18 05:23:26;;;;;;;6.00;3.13;;;20.60;99.90;;;;;;5019669;28;20041;-82
2023/08/18 05:25:54;;;;;;;4.70;3.17;;;20.80;99.90;;;;;;5025930;28;20029;-82
2023/08/18 05:28:25;;;;;;;7.72;2.90;;;21.00;99.90;;;;;;5038888;28;20140;-81
2023/08/18 05:30:52;;;;;;;5.38;3.20;;;21.80;88.00;;;;;;5031362;28;20033;-82
2023/08/18 05:33:18;;;;;;;3.58;2.40;;;22.70;1.00;;;;;;5024591;28;20025;-82
2023/08/18 05:35:44;;;;;;;6.90;3.00;;;22.90;1.00;;;;;;5034631;28;20033;-81
2023/08/18 05:38:11;;;;;;;6.35;2.88;;;23.20;1.00;;;;;;5024527;28;20041;-83
2023/08/18 05:40:41;;;;;;;4.93;2.95;;;23.40;99.90;;;;;;5019491;28;20037;-81
2023/08/18 05:43:09;;;;;;;5.72;2.50;;;23.50;99.90;;;;;;5020813;28;20438;-81
2023/08/18 05:45:38;;;;;;;3.45;2.50;;;23.50;99.90;;;;;;5026433;28;20041;-81
2023/08/18 05:48:04;;;;;;;3.00;2.38;;;24.10;99.90;;;;;;5032517;28;20029;-83
2023/08/18 05:50:32;;;;;;;4.38;2.78;;;24.00;99.90;;;;;;5029882;28;20048;-81
2023/08/18 05:52:58;;;;;;;4.47;2.65;;;23.80;99.90;;;;;;5045953;28;20029;-78
2023/08/18 05:55:25;;;;;;;4.38;2.80;;;23.90;99.90;;;;;;5033010;28;20030;-81
2023/08/18 05:57:52;;;;;;;5.28;3.53;;;23.90;99.90;;;;;;5026917;28;20041;-82
2023/08/18 06:00:19;;;;;;;4.32;3.28;;;23.90;99.90;;;;;;5022219;28;20041;-82
2023/08/18 06:02:47;;;;;;;5.18;3.28;;;23.70;99.90;;;;;;5028517;28;20041;-81
2023/08/18 06:05:14;;;;;;;5.10;2.70;;;23.70;99.90;;;;;;5022078;28;20481;-81
2023/08/18 06:07:40;;;;;;;4.68;2.50;;;24.60;99.90;;;;;;5015329;28;20459;-81
2023/08/18 06:10:08;;;;;;;3.95;2.70;;;25.20;99.90;;;;;;5029772;28;20083;-82
2023/08/18 06:12:34;;;;;;;4.57;2.90;;;25.30;99.90;;;;;;5038903;28;20030;-85
2023/08/18 06:15:01;;;;;;;3.42;2.47;;;25.80;92.80;;;;;;5030741;28;20041;-83
2023/08/18 06:17:27;;;;;;;3.00;2.17;;;25.80;99.90;;;;;;5027090;28;20025;-84
2023/08/18 06:19:53;;;;;;;4.53;2.85;;;26.20;61.60;;;;;;5030446;28;20523;-82
2023/08/18 06:22:19;;;;;;;3.25;2.55;;;25.90;77.60;;;;;;5032249;28;20033;-82
2023/08/18 06:24:45;;;;;;;3.72;2.58;;;25.10;99.90;;;;;;5018768;28;20401;-83
2023/08/18 06:27:12;;;;;;;4.40;2.60;;;25.00;99.90;;;;;;5027072;28;20389;-82
2023/08/18 06:29:38;;;;;;;2.95;2.25;;;25.40;99.90;;;;;;5023224;28;20362;-81
2023/08/18 06:32:05;;;;;;;4.15;2.70;;;26.70;1.00;;;;;;5029303;28;20033;-82
2023/08/18 06:34:31;;;;;;;5.30;2.92;;;26.70;1.00;;;;;;5030534;28;20032;-82
2023/08/18 06:36:57;;;;;;;4.15;2.60;;;26.50;1.00;;;;;;5036819;28;20462;-79
2023/08/18 06:39:23;;;;;;;4.90;2.58;;;26.50;1.00;;;;;;5027814;28;20033;-83
2023/08/18 06:41:49;;;;;;;3.38;2.60;;;27.20;1.00;;;;;;5019786;28;20033;-82
2023/08/18 06:44:18;;;;;;;3.40;1.80;;;27.90;1.00;;;;;;5032485;28;20041;-82
2023/08/18 06:46:44;;;;;;;4.20;2.28;;;29.00;99.90;;;;;;5030836;28;20375;-83
2023/08/18 06:49:10;;;;;;;3.28;2.40;;;28.90;99.90;;;;;;5023939;28;20046;-81
2023/08/18 06:51:36;;;;;;;2.97;2.45;;;29.20;99.90;;;;;;5021294;28;20029;-82
2023/08/18 06:54:02;;;;;;;7.38;2.95;;;30.00;99.90;;;;;;5028745;28;20033;-82
2023/08/18 06:56:28;;;;;;;3.15;2.38;;;30.10;99.90;;;;;;5031807;28;20044;-81
2023/08/18 06:58:55;;;;;;;3.15;2.38;;;28.10;99.90;;;;;;5031104;28;20037;-83
2023/08/18 07:01:21;;;;;;;3.83;2.55;;;27.80;1.00;;;;;;5032230;28;20049;-83
2023/08/18 07:03:50;;;;;;;5.95;2.08;;;26.90;1.00;;;;;;5032582;28;20041;-83
2023/08/18 07:06:16;;;;;;;6.03;2.47;;;26.60;1.00;;;;;;5024176;28;20041;-83
2023/08/18 07:08:42;;;;;;;2.97;2.17;;;27.00;1.00;;;;;;5019514;28;20053;-83
2023/08/18 07:11:08;;;;;;;3.22;2.20;;;26.00;1.00;;;;;;5023364;28;20447;-83
2023/08/18 07:13:35;;;;;;;2.80;2.13;;;26.90;1.00;;;;;;5021747;28;20041;-83
2023/08/18 07:16:02;;;;;;;6.75;2.35;;;27.90;1.00;;;;;;5027527;28;20041;-79
2023/08/18 07:18:28;;;;;;;3.97;2.55;;;27.80;99.90;;;;;;5037229;28;20037;-83
2023/08/18 07:20:56;;;;;;;4.45;2.72;;;26.50;1.00;;;;;;5026370;28;20040;-83
2023/08/18 07:23:22;;;;;;;3.60;2.47;;;25.60;1.00;;;;;;5030683;28;20138;-83
2023/08/18 07:25:48;;;;;;;4.40;3.22;;;25.80;1.00;;;;;;5026675;28;20034;-84
2023/08/18 07:28:14;;;;;;;4.60;3.13;;;25.70;1.00;;;;;;5031397;28;20045;-83
2023/08/18 07:30:40;;;;;;;3.35;2.78;;;25.80;1.00;;;;;;5030055;28;20406;-82
2023/08/18 07:33:06;;;;;;;3.38;2.70;;;26.50;1.00;;;;;;5024440;28;20052;-86
2023/08/18 07:35:33;;;;;;;4.60;2.35;;;27.00;1.00;;;;;;5028854;28;20021;-83
2023/08/18 07:37:59;;;;;;;5.68;2.63;;;26.80;1.00;;;;;;5035096;28;20033;-84
2023/08/18 07:40:27;;;;;;;5.78;2.92;;;27.30;1.00;;;;;;5031292;28;20029;-84
2023/08/18 07:42:54;;;;;;;4.72;3.10;;;27.90;99.90;;;;;;5033425;28;20113;-84
2023/08/18 07:45:20;;;;;;;2.55;2.10;;;27.80;99.90;;;;;;5033985;28;20431;-84
2023/08/18 07:47:47;;;;;;;5.45;3.03;;;28.50;99.90;;;;;;5032820;28;20032;-84
2023/08/18 07:50:15;;;;;;;3.92;2.20;;;29.20;99.90;;;;;;5021907;28;20026;-84
2023/08/18 07:52:41;;;;;;;3.90;2.47;;;27.50;99.90;;;;;;5032652;28;20628;-85
2023/08/18 07:55:08;;;;;;;3.90;2.55;;;26.60;99.90;;;;;;5029308;28;20034;-85
2023/08/18 07:57:36;;;;;;;3.40;2.28;;;26.10;1.00;;;;;;5023857;28;20056;-84
2023/08/18 08:00:16;;;;;;;2.15;1.95;;;27.00;99.90;;;;;;5031892;28;20046;-84
2023/08/18 08:02:47;;;;;;;4.93;2.70;;;27.60;99.90;;;;;;5038542;28;20041;-86
2023/08/18 08:05:13;;;;;;;4.32;2.10;;;28.50;99.90;;;;;;5039413;28;20054;-85
2023/08/18 08:07:40;;;;;;;4.50;2.20;;;29.10;99.90;;;;;;5025473;28;20046;-85
2023/08/18 08:10:07;;;;;;;4.13;2.22;;;29.80;99.90;;;;;;5035416;28;20398;-85
2023/08/18 08:12:34;;;;;;;7.20;1.92;;;30.20;99.90;;;;;;5031394;28;20383;-87
2023/08/18 08:15:03;;;;;;;3.03;2.45;;;29.70;99.90;;;;;;5022151;28;20037;-85
2023/08/18 08:17:30;;;;;;;4.75;3.05;;;29.60;99.90;;;;;;5023239;28;20033;-83
2023/08/18 08:19:57;;;;;;;4.97;2.25;;;29.30;99.90;;;;;;5030180;28;20036;-84
2023/08/18 08:22:23;;;;;;;2.90;2.00;;;29.00;99.90;;;;;;5035968;28;20390;-86
2023/08/18 08:24:57;;;;;;;3.55;2.40;;;28.90;99.90;;;;;;5033991;28;20054;-86
2023/08/18 08:27:26;;;;;;;3.25;2.22;;;29.50;99.90;;;;;;5042369;28;20392;-88
2023/08/18 08:29:52;;;;;;;4.30;2.00;;;28.70;99.90;;;;;;5032661;28;20064;-86
2023/08/18 08:32:18;;;;;;;2.75;2.08;;;27.60;99.90;;;;;;5023914;28;20030;-85
2023/08/18 08:34:51;;;;;;;2.15;1.77;;;27.50;99.90;;;;;;5030229;28;20040;-85
2023/08/18 08:37:18;;;;;;;3.47;1.98;;;28.20;99.90;;;;;;5027980;28;20038;-85
2023/08/18 08:39:44;;;;;;;2.90;1.85;;;28.90;99.90;;;;;;5023392;28;20366;-85
2023/08/18 08:42:11;;;;;;;6.90;2.00;;;29.70;99.90;;;;;;5017734;28;20034;-87
2023/08/18 08:44:38;;;;;;;6.22;2.10;;;30.10;99.90;;;;;;5041044;28;20049;-86
2023/08/18 08:47:05;;;;;;;4.05;1.98;;;29.50;99.90;;;;;;5035687;28;20458;-80
2023/08/18 08:49:34;;;;;;;3.28;1.77;;;29.40;99.90;;;;;;5029412;28;20037;-85
2023/08/18 08:52:06;;;;;;;4.90;1.92;;;29.60;99.90;;;;;;5029274;28;20022;-85
2023/08/18 08:54:36;;;;;;;5.10;1.50;;;29.90;99.90;;;;;;5033183;28;20049;-86
2023/08/18 08:57:05;;;;;;;2.88;2.10;;;29.80;99.90;;;;;;5025144;28;20034;-87
2023/08/18 08:59:32;;;;;;;2.72;1.63;;;28.30;99.90;;;;;;5016635;28;20046;-86
2023/08/18 09:01:59;;;;;;;4.18;2.05;;;28.40;99.90;;;;;;5025691;28;20036;-85
2023/08/18 09:04:25;;;;;;;4.07;1.65;;;28.60;99.90;;;;;;5032630;28;20250;-85
2023/08/18 09:06:51;;;;;;;2.67;1.38;;;29.00;99.90;;;;;;5031433;28;20363;-87
2023/08/18 09:09:18;;;;;;;4.35;1.55;;;29.70;99.90;;;;;;5031789;28;20371;-82
2023/08/18 09:11:46;;;;;;;2.80;1.77;;;29.50;99.90;;;;;;5034154;28;20397;-85
2023/08/18 09:14:16;;;;;;;5.90;1.90;;;29.50;99.90;;;;;;5036423;28;20045;-85
2023/08/18 09:16:44;;;;;;;2.67;1.75;;;29.80;99.90;;;;;;5022653;28;20029;-88
2023/08/18 09:19:14;;;;;;;2.75;1.60;;;29.50;99.90;;;;;;5031058;28;20056;-80
2023/08/18 09:21:41;;;;;;;2.35;1.35;;;29.70;99.90;;;;;;5021132;28;20033;-86
2023/08/18 09:24:07;;;;;;;4.72;1.77;;;29.90;99.90;;;;;;5025374;28;20048;-83
2023/08/18 09:26:34;;;;;;;3.88;1.50;;;29.50;99.90;;;;;;5034523;28;20037;-87
2023/08/18 09:29:02;;;;;;;3.03;1.73;;;28.90;99.90;;;;;;5040313;28;20029;-85
2023/08/18 09:31:29;;;;;;;2.47;1.20;;;28.10;99.90;;;;;;5033341;28;20033;-83
2023/08/18 09:33:56;;;;;;;2.92;1.98;;;28.20;99.90;;;;;;5029495;28;20030;-87
2023/08/18 09:36:22;;;;;;;3.55;1.33;;;28.70;99.90;;;;;;5036531;28;20038;-85
2023/08/18 09:38:48;;;;;;;1.92;1.23;;;29.60;99.90;;;;;;5030385;28;20395;-87
2023/08/18 09:41:15;;;;;;;2.17;1.20;;;29.40;99.90;;;;;;5019921;28;20037;-86
2023/08/18 09:43:41;;;;;;;1.90;1.33;;;29.00;99.90;;;;;;5027646;28;20029;-85
2023/08/18 09:46:12;;;;;;;1.42;1.00;;;29.30;99.90;;;;;;5024444;28;20068;-78
2023/08/18 09:48:40;;;;;;;1.50;1.10;;;29.50;99.90;;;;;;5035142;28;20044;-85
2023/08/18 09:51:12;;;;;;;2.88;1.20;;;29.30;99.90;;;;;;5027987;28;20463;-80
2023/08/18 09:53:53;;;;;;;1.50;1.00;;;29.20;99.90;;;;;;5039888;28;20033;-86
2023/08/18 09:56:26;;;;;;;2.38;1.10;;;29.40;99.90;;;;;;5025709;28;20033;-86
2023/08/18 09:59:11;;;;;;;1.75;0.95;;;29.50;99.90;;;;;;5023451;28;20089;-86
2023/08/18 10:01:38;;;;;;;4.45;2.28;;;29.50;99.90;;;;;;5033080;28;20040;-86
2023/08/18 10:04:06;;;;;;;2.08;0.90;;;29.70;99.90;;;;;;5032743;28;20395;-85
2023/08/18 10:06:36;;;;;;;1.67;0.98;;;29.90;99.90;;;;;;5021528;28;20041;-86
2023/08/18 10:09:02;;;;;;;3.88;1.77;;;30.00;99.90;;;;;;5019967;28;20513;-86
2023/08/18 10:11:29;;;;;;;2.42;1.23;;;30.20;99.90;;;;;;5042025;28;20481;-87
2023/08/18 10:13:56;;;;;;;2.38;1.35;;;30.50;99.90;;;;;;5033003;28;20041;-86
2023/08/18 10:16:22;;;;;;;1.50;0.70;;;30.70;99.90;;;;;;5025390;28;20040;-85
2023/08/18 10:18:55;;;;;;;1.15;0.80;;;30.20;99.90;;;;;;5032843;28;20037;-85
2023/08/18 10:21:27;;;;;;;1.30;0.63;;;30.20;99.90;;;;;;5025118;28;20037;-87
2023/08/18 10:23:53;;;;;;;2.63;0.75;;;30.10;99.90;;;;;;5023841;28;20040;-86
2023/08/18 10:26:22;;;;;;;2.40;1.27;;;30.10;99.90;;;;;;5020509;28;20059;-87
2023/08/18 10:28:49;;;;;;;1.38;0.82;;;30.10;99.90;;;;;;5030305;28;20041;-86
2023/08/18 10:31:16;;;;;;;1.92;0.88;;;29.90;99.90;;;;;;5023657;28;20048;-85
2023/08/18 10:33:44;;;;;;;3.97;1.05;;;29.70;99.90;;;;;;5023892;28;20478;-83
2023/08/18 10:36:19;;;;;;;1.63;0.88;;;29.70;99.90;;;;;;5037834;28;20048;-85
2023/08/18 10:38:45;;;;;;;2.42;1.70;;;29.50;99.90;;;;;;5033480;28;20058;-86
2023/08/18 10:41:11;;;;;;;2.28;0.95;;;29.40;99.90;;;;;;5023960;28;20033;-84
2023/08/18 10:43:47;;;;;;;2.80;1.13;;;29.30;99.90;;;;;;5027289;28;20033;-84
2023/08/18 10:46:13;;;;;;;1.50;0.80;;;29.50;99.90;;;;;;5030164;28;20050;-85
2023/08/18 10:48:40;;;;;;;1.92;1.00;;;29.90;99.90;;;;;;5029357;28;20037;-82
2023/08/18 10:51:07;;;;;;;1.98;1.48;;;29.90;99.90;;;;;;5015998;28;20050;-84
2023/08/18 10:53:36;;;;;;;1.60;0.70;;;29.80;99.90;;;;;;5027858;28;20029;-84
2023/08/18 10:56:04;;;;;;;1.33;0.90;;;29.70;99.90;;;;;;5037365;28;20060;-83
2023/08/18 10:58:31;;;;;;;2.20;0.80;;;30.00;99.90;;;;;;5027947;28;20049;-85
2023/08/18 11:00:58;;;;;;;1.92;0.90;;;30.00;99.90;;;;;;5031083;28;20036;-83
2023/08/18 11:03:25;;;;;;;2.15;1.08;;;29.90;99.90;;;;;;5027732;28;20037;-84
2023/08/18 11:05:52;;;;;;;2.67;0.80;;;30.00;99.90;;;;;;5026419;28;20399;-84
2023/08/18 11:08:18;;;;;;;1.55;0.88;;;30.50;99.90;;;;;;5018029;28;20033;-83
2023/08/18 11:10:44;;;;;;;2.70;0.95;;;30.30;99.90;;;;;;5029984;28;20052;-84
2023/08/18 11:13:22;;;;;;;4.00;1.00;;;30.50;99.90;;;;;;5019875;28;20489;-81
2023/08/18 11:15:50;;;;;;;1.55;0.90;;;30.90;99.90;;;;;;5029222;28;20046;-83
2023/08/18 11:18:18;;;;;;;2.60;0.80;;;30.90;99.90;;;;;;5035501;28;20034;-84
2023/08/18 11:20:44;;;;;;;2.00;0.80;;;30.90;99.90;;;;;;5038501;28;20022;-83
2023/08/18 11:23:11;;;;;;;1.38;0.95;;;30.70;99.90;;;;;;5034538;28;20029;-78
2023/08/18 11:25:37;;;;;;;1.58;0.82;;;30.90;99.90;;;;;;5026134;28;20033;-84
2023/08/18 11:28:04;;;;;;;1.80;1.10;;;30.70;99.90;;;;;;5035964;28;20045;-82
2023/08/18 11:30:32;;;;;;;3.35;0.90;;;30.20;99.90;;;;;;5024427;28;20205;-84
2023/08/18 11:32:58;;;;;;;3.80;1.17;;;30.20;99.90;;;;;;5020851;28;20029;-84
2023/08/18 11:35:25;;;;;;;1.58;0.80;;;30.40;99.90;;;;;;5021997;28;20056;-83
2023/08/18 11:37:55;;;;;;;6.03;1.60;;;30.70;99.90;;;;;;5038430;28;20489;-85
2023/08/18 11:40:22;;;;;;;3.30;0.90;;;31.00;99.90;;;;;;5035496;28;20045;-80
2023/08/18 11:42:50;;;;;;;3.63;1.00;;;31.20;99.90;;;;;;5041862;28;20033;-85
2023/08/18 11:45:22;;;;;;;0.85;0.60;;;31.30;99.90;;;;;;5042173;28;20046;-78
2023/08/18 11:48:05;;;;;;;2.78;0.70;;;31.20;99.90;;;;;;5053021;28;20056;-86
2023/08/18 11:50:31;;;;;;;2.28;0.70;;;31.40;99.90;;;;;;5028693;28;20399;-84
2023/08/18 11:52:57;;;;;;;2.15;1.02;;;31.50;99.90;;;;;;5031770;28;20030;-85
2023/08/18 11:55:39;;;;;;;2.90;0.98;;;31.30;99.90;;;;;;5031758;28;20442;-85
2023/08/18 11:58:10;;;;;;;1.92;0.93;;;31.20;99.90;;;;;;5022319;28;20042;-82
2023/08/18 12:00:38;;;;;;;2.70;0.70;;;31.40;99.90;;;;;;5034063;28;20037;-84
2023/08/18 12:03:07;;;;;;;3.05;0.80;;;31.10;99.90;;;;;;5040069;28;20056;-84
2023/08/18 12:05:38;;;;;;;3.92;0.80;;;31.30;99.90;;;;;;5032594;28;20044;-84
2023/08/18 12:08:09;;;;;;;1.95;0.93;;;31.50;99.90;;;;;;5025271;28;20033;-83
2023/08/18 12:10:35;;;;;;;5.22;0.80;;;31.70;99.90;;;;;;5039055;28;20724;-87
2023/08/18 12:13:01;;;;;;;1.25;0.52;;;31.70;99.70;;;;;;5029189;28;20022;-84
2023/08/18 12:15:27;;;;;;;1.65;0.93;;;31.80;97.90;;;;;;5022038;28;20060;-86
2023/08/18 12:17:54;;;;;;;2.63;1.08;;;31.90;99.60;;;;;;5022611;28;20041;-85
2023/08/18 12:20:20;;;;;;;2.45;0.73;;;32.00;96.40;;;;;;5032276;28;20030;-85
2023/08/18 12:22:51;;;;;;;1.80;0.70;;;31.70;96.80;;;;;;5037085;28;20033;-86
2023/08/18 12:25:19;;;;;;;3.28;0.70;;;31.60;99.20;;;;;;5031254;28;20471;-86
2023/08/18 12:27:48;;;;;;;3.08;0.80;;;31.70;93.90;;;;;;5036758;28;20382;-83
2023/08/18 12:30:17;;;;;;;1.02;0.70;;;31.70;92.60;;;;;;5031058;28;20022;-83
2023/08/18 12:32:45;;;;;;;2.50;0.77;;;31.70;93.70;;;;;;5027456;28;20356;-84
2023/08/18 12:35:11;;;;;;;1.52;0.70;;;31.80;94.90;;;;;;5030708;28;20044;-81
2023/08/18 12:37:37;;;;;;;1.38;0.45;;;31.80;93.00;;;;;;5029860;28;20042;-80
2023/08/18 12:40:10;;;;;;;2.15;0.50;;;32.00;92.60;;;;;;5020879;28;20030;-80
2023/08/18 12:42:38;;;;;;;3.97;1.15;;;31.90;91.00;;;;;;5021208;28;20033;-79
2023/08/18 12:45:05;;;;;;;1.52;0.68;;;31.90;93.30;;;;;;5039466;28;20046;-79
2023/08/18 12:47:31;;;;;;;1.60;0.60;;;31.90;91.40;;;;;;5037472;28;20034;-80
2023/08/18 12:49:59;;;;;;;1.10;0.70;;;31.60;90.70;;;;;;5029319;28;20038;-80
2023/08/18 12:52:25;;;;;;;2.28;1.35;;;31.80;94.90;;;;;;5032622;28;20048;-80